sensor_id;sensor_type;location;lat;lon;timestamp;pressure;altitude;pressure_sealevel;temperature;humidity
29315;BME280;16320;53.954;9.506;2023-03-11T00:00:47;99765.38;;;0.41;100.00
29315;BME280;16320;53.954;9.506;2023-03-11T00:03:51;99773.13;;;0.41;100.00
29315;BME280;16320;53.954;9.506;2023-03-11T00:06:56;99786.00;;;0.43;100.00
29315;BME280;16320;53.954;9.506;2023-03-11T00:10:00;99796.28;;;0.44;100.00
29315;BME280;16320;53.954;9.506;2023-03-11T00:13:06;99805.00;;;0.40;100.00
29315;BME280;16320;53.954;9.506;2023-03-11T00:16:11;99806.81;;;0.36;100.00
29315;BME280;16320;53.954;9.506;2023-03-11T00:19:15;99812.88;;;0.34;100.00
29315;BME280;16320;53.954;9.506;2023-03-11T00:22:19;99818.06;;;0.34;100.00
29315;BME280;16320;53.954;9.506;2023-03-11T00:25:28;99823.28;;;0.31;100.00
29315;BME280;16320;53.954;9.506;2023-03-11T00:28:33;99816.50;;;0.27;100.00
29315;BME280;16320;53.954;9.506;2023-03-11T00:31:37;99817.38;;;0.26;100.00
29315;BME280;16320;53.954;9.506;2023-03-11T00:34:42;99832.94;;;0.23;100.00
29315;BME280;16320;53.954;9.506;2023-03-11T00:37:47;99838.13;;;0.23;100.00
29315;BME280;16320;53.954;9.506;2023-03-11T00:40:52;99850.97;;;0.26;100.00
29315;BME280;16320;53.954;9.506;2023-03-11T00:43:56;99841.53;;;0.25;100.00
29315;BME280;16320;53.954;9.506;2023-03-11T00:47:00;99841.53;;;0.25;100.00
29315;BME280;16320;53.954;9.506;2023-03-11T00:50:06;99852.91;;;0.16;100.00
29315;BME280;16320;53.954;9.506;2023-03-11T00:53:11;99857.22;;;0.15;100.00
29315;BME280;16320;53.954;9.506;2023-03-11T00:56:15;99860.63;;;0.17;100.00
29315;BME280;16320;53.954;9.506;2023-03-11T00:59:21;99862.25;;;0.22;100.00
29315;BME280;16320;53.954;9.506;2023-03-11T01:02:25;99866.47;;;0.26;100.00
29315;BME280;16320;53.954;9.506;2023-03-11T01:05:32;99876.72;;;0.29;100.00
29315;BME280;16320;53.954;9.506;2023-03-11T01:08:37;99877.66;;;0.26;100.00
29315;BME280;16320;53.954;9.506;2023-03-11T01:11:41;99891.47;;;0.24;100.00
29315;BME280;16320;53.954;9.506;2023-03-11T01:14:46;99899.25;;;0.22;100.00
29315;BME280;16320;53.954;9.506;2023-03-11T01:17:50;99889.25;;;0.08;100.00
29315;BME280;16320;53.954;9.506;2023-03-11T01:20:54;99890.88;;;0.12;100.00
29315;BME280;16320;53.954;9.506;2023-03-11T01:23:59;99896.09;;;0.09;100.00
29315;BME280;16320;53.954;9.506;2023-03-11T01:27:03;99897.00;;;0.08;100.00
29315;BME280;16320;53.954;9.506;2023-03-11T01:30:11;99890.13;;;0.07;100.00
29315;BME280;16320;53.954;9.506;2023-03-11T01:33:18;99899.63;;;0.07;100.00
29315;BME280;16320;53.954;9.506;2023-03-11T01:36:22;99907.41;;;0.05;100.00
29315;BME280;16320;53.954;9.506;2023-03-11T01:39:26;99902.34;;;-0.01;100.00
29315;BME280;16320;53.954;9.506;2023-03-11T01:42:31;99913.56;;;-0.02;100.00
29315;BME280;16320;53.954;9.506;2023-03-11T01:48:55;99929.16;;;-0.08;100.00
29315;BME280;16320;53.954;9.506;2023-03-11T01:52:04;99926.72;;;-0.14;100.00
29315;BME280;16320;53.954;9.506;2023-03-11T01:55:12;99922.53;;;-0.20;100.00
29315;BME280;16320;53.954;9.506;2023-03-11T01:58:24;99932.84;;;-0.20;100.00
29315;BME280;16320;53.954;9.506;2023-03-11T02:01:30;99935.41;;;-0.19;100.00
29315;BME280;16320;53.954;9.506;2023-03-11T02:04:36;99947.44;;;-0.17;100.00
29315;BME280;16320;53.954;9.506;2023-03-11T02:07:41;99952.66;;;-0.21;100.00
29315;BME280;16320;53.954;9.506;2023-03-11T02:10:46;99963.94;;;-0.26;100.00
29315;BME280;16320;53.954;9.506;2023-03-11T02:13:55;99956.31;;;-0.31;100.00
29315;BME280;16320;53.954;9.506;2023-03-11T02:17:01;99966.72;;;-0.35;100.00
29315;BME280;16320;53.954;9.506;2023-03-11T02:27:21;99972.69;;;-0.33;100.00
29315;BME280;16320;53.954;9.506;2023-03-11T02:30:26;99988.09;;;-0.29;100.00
29315;BME280;16320;53.954;9.506;2023-03-11T02:33:34;99987.28;;;-0.31;100.00
29315;BME280;16320;53.954;9.506;2023-03-11T02:36:41;99993.34;;;-0.33;100.00
29315;BME280;16320;53.954;9.506;2023-03-11T02:39:50;100003.72;;;-0.37;100.00
29315;BME280;16320;53.954;9.506;2023-03-11T02:43:03;100000.22;;;-0.32;100.00
29315;BME280;16320;53.954;9.506;2023-03-11T02:46:11;99998.53;;;-0.35;100.00
29315;BME280;16320;53.954;9.506;2023-03-11T02:49:16;100005.44;;;-0.37;100.00
29315;BME280;16320;53.954;9.506;2023-03-11T02:52:23;100006.38;;;-0.41;100.00
29315;BME280;16320;53.954;9.506;2023-03-11T02:55:28;100003.13;;;-0.52;100.00
29315;BME280;16320;53.954;9.506;2023-03-11T02:58:33;100015.97;;;-0.49;100.00
29315;BME280;16320;53.954;9.506;2023-03-11T03:01:37;100013.50;;;-0.56;100.00
29315;BME280;16320;53.954;9.506;2023-03-11T03:04:42;100027.34;;;-0.60;100.00
29315;BME280;16320;53.954;9.506;2023-03-11T03:07:47;100039.28;;;-0.56;100.00
29315;BME280;16320;53.954;9.506;2023-03-11T03:10:52;100035.78;;;-0.51;100.00
29315;BME280;16320;53.954;9.506;2023-03-11T03:13:56;100041.72;;;-0.46;100.00
29315;BME280;16320;53.954;9.506;2023-03-11T03:17:00;100041.63;;;-0.40;100.00
29315;BME280;16320;53.954;9.506;2023-03-11T03:20:08;100042.50;;;-0.43;100.00
29315;BME280;16320;53.954;9.506;2023-03-11T03:23:15;100045.03;;;-0.40;100.00
29315;BME280;16320;53.954;9.506;2023-03-11T03:26:19;100050.31;;;-0.46;100.00
29315;BME280;16320;53.954;9.506;2023-03-11T03:29:23;100050.31;;;-0.47;100.00
29315;BME280;16320;53.954;9.506;2023-03-11T03:32:28;100054.72;;;-0.52;100.00
29315;BME280;16320;53.954;9.506;2023-03-11T03:35:33;100065.22;;;-0.62;100.00
29315;BME280;16320;53.954;9.506;2023-03-11T03:38:37;100066.97;;;-0.65;100.00
29315;BME280;16320;53.954;9.506;2023-03-11T03:41:42;100067.03;;;-0.70;100.00
29315;BME280;16320;53.954;9.506;2023-03-11T03:44:46;100066.22;;;-0.72;100.00
29315;BME280;16320;53.954;9.506;2023-03-11T03:47:51;100073.25;;;-0.82;100.00
29315;BME280;16320;53.954;9.506;2023-03-11T03:50:56;100082.75;;;-0.85;100.00
29315;BME280;16320;53.954;9.506;2023-03-11T03:54:00;100081.78;;;-0.78;100.00
29315;BME280;16320;53.954;9.506;2023-03-11T03:57:04;100084.34;;;-0.78;100.00
29315;BME280;16320;53.954;9.506;2023-03-11T04:00:11;100086.13;;;-0.80;100.00
29315;BME280;16320;53.954;9.506;2023-03-11T04:03:16;100091.34;;;-0.86;100.00
29315;BME280;16320;53.954;9.506;2023-03-11T04:06:26;100095.72;;;-0.92;100.00
29315;BME280;16320;53.954;9.506;2023-03-11T04:09:32;100094.16;;;-1.00;100.00
29315;BME280;16320;53.954;9.506;2023-03-11T04:12:36;100093.41;;;-1.08;100.00
29315;BME280;16320;53.954;9.506;2023-03-11T04:15:41;100098.53;;;-1.07;100.00
29315;BME280;16320;53.954;9.506;2023-03-11T04:18:45;100098.66;;;-1.16;100.00
29315;BME280;16320;53.954;9.506;2023-03-11T04:21:50;100093.50;;;-1.16;100.00
29315;BME280;16320;53.954;9.506;2023-03-11T04:24:55;100105.59;;;-1.21;100.00
29315;BME280;16320;53.954;9.506;2023-03-11T04:27:59;100107.25;;;-1.17;100.00
29315;BME280;16320;53.954;9.506;2023-03-11T04:31:04;100113.28;;;-1.18;100.00
29315;BME280;16320;53.954;9.506;2023-03-11T04:34:09;100118.44;;;-1.18;100.00
29315;BME280;16320;53.954;9.506;2023-03-11T04:37:13;100114.97;;;-1.17;100.00
29315;BME280;16320;53.954;9.506;2023-03-11T04:40:17;100120.97;;;-1.14;100.00
29315;BME280;16320;53.954;9.506;2023-03-11T04:43:22;100129.44;;;-1.04;100.00
29315;BME280;16320;53.954;9.506;2023-03-11T04:46:26;100146.63;;;-1.06;100.00
29315;BME280;16320;53.954;9.506;2023-03-11T04:49:30;100144.78;;;-0.98;100.00
29315;BME280;16320;53.954;9.506;2023-03-11T04:52:35;100158.56;;;-0.99;100.00
29315;BME280;16320;53.954;9.506;2023-03-11T04:55:39;100163.72;;;-0.97;100.00
29315;BME280;16320;53.954;9.506;2023-03-11T04:58:44;100161.22;;;-1.03;100.00
29315;BME280;16320;53.954;9.506;2023-03-11T05:01:49;100168.88;;;-0.99;100.00
29315;BME280;16320;53.954;9.506;2023-03-11T05:04:53;100166.31;;;-0.99;100.00
29315;BME280;16320;53.954;9.506;2023-03-11T05:07:57;100174.06;;;-1.02;100.00
29315;BME280;16320;53.954;9.506;2023-03-11T05:11:02;100181.81;;;-1.03;100.00
29315;BME280;16320;53.954;9.506;2023-03-11T05:14:07;100187.88;;;-1.06;100.00
29315;BME280;16320;53.954;9.506;2023-03-11T05:17:11;100184.50;;;-1.11;100.00
29315;BME280;16320;53.954;9.506;2023-03-11T05:20:18;100188.91;;;-1.21;100.00
29315;BME280;16320;53.954;9.506;2023-03-11T05:23:22;100185.47;;;-1.18;100.00
29315;BME280;16320;53.954;9.506;2023-03-11T05:26:26;100184.66;;;-1.23;100.00
29315;BME280;16320;53.954;9.506;2023-03-11T05:29:31;100190.59;;;-1.17;100.00
29315;BME280;16320;53.954;9.506;2023-03-11T05:32:35;100199.19;;;-1.19;100.00
29315;BME280;16320;53.954;9.506;2023-03-11T05:35:40;100203.47;;;-1.15;100.00
29315;BME280;16320;53.954;9.506;2023-03-11T05:38:46;100213.63;;;-1.06;100.00
29315;BME280;16320;53.954;9.506;2023-03-11T05:41:50;100225.63;;;-1.02;100.00
29315;BME280;16320;53.954;9.506;2023-03-11T05:44:54;100227.38;;;-1.04;100.00
29315;BME280;16320;53.954;9.506;2023-03-11T05:47:59;100232.47;;;-1.01;100.00
29315;BME280;16320;53.954;9.506;2023-03-11T05:51:10;100229.09;;;-1.04;100.00
29315;BME280;16320;53.954;9.506;2023-03-11T05:54:15;100237.72;;;-1.07;100.00
29315;BME280;16320;53.954;9.506;2023-03-11T05:57:20;100238.56;;;-1.06;100.00
29315;BME280;16320;53.954;9.506;2023-03-11T06:00:24;100232.63;;;-1.13;100.00
29315;BME280;16320;53.954;9.506;2023-03-11T06:03:32;100241.25;;;-1.16;100.00
29315;BME280;16320;53.954;9.506;2023-03-11T06:06:38;100245.59;;;-1.21;100.00
29315;BME280;16320;53.954;9.506;2023-03-11T06:09:44;100241.34;;;-1.23;100.00
29315;BME280;16320;53.954;9.506;2023-03-11T06:12:48;100243.16;;;-1.32;100.00
29315;BME280;16320;53.954;9.506;2023-03-11T06:15:53;100248.34;;;-1.35;100.00
29315;BME280;16320;53.954;9.506;2023-03-11T06:18:58;100261.09;;;-1.25;100.00
29315;BME280;16320;53.954;9.506;2023-03-11T06:22:05;100261.22;;;-1.33;100.00
29315;BME280;16320;53.954;9.506;2023-03-11T06:25:10;100265.50;;;-1.34;100.00
29315;BME280;16320;53.954;9.506;2023-03-11T06:28:16;100264.59;;;-1.30;100.00
29315;BME280;16320;53.954;9.506;2023-03-11T06:31:24;100273.25;;;-1.38;100.00
29315;BME280;16320;53.954;9.506;2023-03-11T06:34:29;100266.38;;;-1.36;100.00
29315;BME280;16320;53.954;9.506;2023-03-11T06:37:35;100270.63;;;-1.34;100.00
29315;BME280;16320;53.954;9.506;2023-03-11T06:40:40;100276.59;;;-1.29;100.00
29315;BME280;16320;53.954;9.506;2023-03-11T06:43:45;100278.31;;;-1.26;100.00
29315;BME280;16320;53.954;9.506;2023-03-11T06:46:50;100270.63;;;-1.31;100.00
29315;BME280;16320;53.954;9.506;2023-03-11T06:49:54;100285.25;;;-1.33;100.00
29315;BME280;16320;53.954;9.506;2023-03-11T06:52:58;100286.88;;;-1.27;100.00
29315;BME280;16320;53.954;9.506;2023-03-11T06:59:14;100284.41;;;-1.33;100.00
29315;BME280;16320;53.954;9.506;2023-03-11T07:02:18;100292.97;;;-1.33;100.00
29315;BME280;16320;53.954;9.506;2023-03-11T07:05:23;100298.94;;;-1.29;100.00
29315;BME280;16320;53.954;9.506;2023-03-11T07:08:27;100307.50;;;-1.25;100.00
29315;BME280;16320;53.954;9.506;2023-03-11T07:11:32;100311.78;;;-1.24;100.00
29315;BME280;16320;53.954;9.506;2023-03-11T07:14:36;100313.50;;;-1.22;100.00
29315;BME280;16320;53.954;9.506;2023-03-11T07:17:41;100319.41;;;-1.14;100.00
29315;BME280;16320;53.954;9.506;2023-03-11T07:20:45;100327.97;;;-1.08;100.00
29315;BME280;16320;53.954;9.506;2023-03-11T07:23:58;100332.03;;;-0.87;100.00
29315;BME280;16320;53.954;9.506;2023-03-11T07:27:03;100337.06;;;-0.78;100.00
29315;BME280;16320;53.954;9.506;2023-03-11T07:30:08;100342.06;;;-0.63;100.00
29315;BME280;16320;53.954;9.506;2023-03-11T07:33:14;100345.44;;;-0.58;100.00
29315;BME280;16320;53.954;9.506;2023-03-11T07:36:22;100354.00;;;-0.56;100.00
29315;BME280;16320;53.954;9.506;2023-03-11T07:39:27;100359.91;;;-0.46;100.00
29315;BME280;16320;53.954;9.506;2023-03-11T07:42:32;100354.69;;;-0.41;100.00
29315;BME280;16320;53.954;9.506;2023-03-11T07:45:38;100362.47;;;-0.44;100.00
29315;BME280;16320;53.954;9.506;2023-03-11T07:48:42;100368.41;;;-0.38;100.00
29315;BME280;16320;53.954;9.506;2023-03-11T07:51:47;100380.34;;;-0.27;100.00
29315;BME280;16320;53.954;9.506;2023-03-11T07:54:51;100382.94;;;-0.27;100.00
29315;BME280;16320;53.954;9.506;2023-03-11T07:57:55;100386.28;;;-0.21;100.00
29315;BME280;16320;53.954;9.506;2023-03-11T08:01:13;100388.84;;;-0.21;100.00
29315;BME280;16320;53.954;9.506;2023-03-11T08:04:19;100393.06;;;-0.13;100.00
29315;BME280;16320;53.954;9.506;2023-03-11T08:07:23;100391.34;;;-0.11;100.00
29315;BME280;16320;53.954;9.506;2023-03-11T08:10:28;100406.72;;;-0.05;100.00
29315;BME280;16320;53.954;9.506;2023-03-11T08:13:33;100411.88;;;-0.05;100.00
29315;BME280;16320;53.954;9.506;2023-03-11T08:16:39;100417.88;;;0.00;100.00
29315;BME280;16320;53.954;9.506;2023-03-11T08:19:43;100417.81;;;0.02;100.00
29315;BME280;16320;53.954;9.506;2023-03-11T08:22:48;100413.47;;;0.07;100.00
29315;BME280;16320;53.954;9.506;2023-03-11T08:26:10;100421.09;;;0.13;100.00
29315;BME280;16320;53.954;9.506;2023-03-11T08:29:15;100412.56;;;0.08;100.00
29315;BME280;16320;53.954;9.506;2023-03-11T08:32:19;100416.75;;;0.20;100.00
29315;BME280;16320;53.954;9.506;2023-03-11T08:35:24;100431.25;;;0.28;100.00
29315;BME280;16320;53.954;9.506;2023-03-11T08:38:30;100426.88;;;0.32;100.00
29315;BME280;16320;53.954;9.506;2023-03-11T08:41:34;100423.47;;;0.30;100.00
29315;BME280;16320;53.954;9.506;2023-03-11T08:44:38;100431.16;;;0.34;100.00
29315;BME280;16320;53.954;9.506;2023-03-11T08:47:43;100429.50;;;0.29;100.00
29315;BME280;16320;53.954;9.506;2023-03-11T08:50:47;100442.38;;;0.32;100.00
29315;BME280;16320;53.954;9.506;2023-03-11T08:53:58;100442.34;;;0.35;100.00
29315;BME280;16320;53.954;9.506;2023-03-11T08:57:03;100442.25;;;0.41;100.00
29315;BME280;16320;53.954;9.506;2023-03-11T09:00:11;100441.34;;;0.44;100.00
29315;BME280;16320;53.954;9.506;2023-03-11T09:03:16;100447.22;;;0.53;100.00
29315;BME280;16320;53.954;9.506;2023-03-11T09:06:21;100447.16;;;0.60;100.00
29315;BME280;16320;53.954;9.506;2023-03-11T09:09:25;100445.38;;;0.62;100.00
29315;BME280;16320;53.954;9.506;2023-03-11T09:12:30;100444.56;;;0.60;100.00
29315;BME280;16320;53.954;9.506;2023-03-11T09:15:34;100442.78;;;0.63;100.00
29315;BME280;16320;53.954;9.506;2023-03-11T09:18:40;100452.91;;;0.77;100.00
29315;BME280;16320;53.954;9.506;2023-03-11T09:21:45;100453.75;;;0.79;100.00
29315;BME280;16320;53.954;9.506;2023-03-11T09:24:51;100452.84;;;0.82;100.00
29315;BME280;16320;53.954;9.506;2023-03-11T09:27:56;100456.19;;;0.88;100.00
29315;BME280;16320;53.954;9.506;2023-03-11T09:31:01;100451.88;;;0.87;100.00
29315;BME280;16320;53.954;9.506;2023-03-11T09:34:05;100457.84;;;0.93;100.00
29315;BME280;16320;53.954;9.506;2023-03-11T09:37:12;100456.81;;;1.04;100.00
29315;BME280;16320;53.954;9.506;2023-03-11T09:40:20;100465.25;;;1.14;100.00
29315;BME280;16320;53.954;9.506;2023-03-11T09:44:01;100463.34;;;1.25;100.00
29315;BME280;16320;53.954;9.506;2023-03-11T09:47:23;100463.19;;;1.33;100.00
29315;BME280;16320;53.954;9.506;2023-03-11T09:50:41;100463.81;;;1.46;100.00
29315;BME280;16320;53.954;9.506;2023-03-11T09:53:58;100474.34;;;1.38;100.00
29315;BME280;16320;53.954;9.506;2023-03-11T09:57:37;100461.06;;;1.55;100.00
29315;BME280;16320;53.954;9.506;2023-03-11T10:00:43;100462.75;;;1.59;100.00
29315;BME280;16320;53.954;9.506;2023-03-11T10:03:53;100464.16;;;1.76;100.00
29315;BME280;16320;53.954;9.506;2023-03-11T10:07:01;100466.63;;;1.82;100.00
29315;BME280;16320;53.954;9.506;2023-03-11T10:10:14;100457.97;;;1.81;100.00
29315;BME280;16320;53.954;9.506;2023-03-11T10:14:12;100465.59;;;1.89;100.00
29315;BME280;16320;53.954;9.506;2023-03-11T10:17:42;100458.66;;;1.91;100.00
29315;BME280;16320;53.954;9.506;2023-03-11T10:20:59;100454.91;;;2.05;100.00
29315;BME280;16320;53.954;9.506;2023-03-11T10:28:04;100453.25;;;2.43;100.00
29315;BME280;16320;53.954;9.506;2023-03-11T10:31:20;100458.19;;;2.53;100.00
29315;BME280;16320;53.954;9.506;2023-03-11T10:35:25;100456.94;;;2.71;100.00
29315;BME280;16320;53.954;9.506;2023-03-11T10:38:39;100457.06;;;2.65;100.00
29315;BME280;16320;53.954;9.506;2023-03-11T10:41:50;100440.06;;;2.89;100.00
29315;BME280;16320;53.954;9.506;2023-03-11T10:44:57;100436.75;;;3.19;100.00
29315;BME280;16320;53.954;9.506;2023-03-11T10:48:13;100425.91;;;3.36;100.00
29315;BME280;16320;53.954;9.506;2023-03-11T10:51:25;100422.63;;;3.29;100.00
29315;BME280;16320;53.954;9.506;2023-03-11T10:54:47;100439.72;;;3.69;100.00
29315;BME280;16320;53.954;9.506;2023-03-11T10:58:11;100434.47;;;4.02;100.00
29315;BME280;16320;53.954;9.506;2023-03-11T11:01:18;100421.28;;;4.08;100.00
29315;BME280;16320;53.954;9.506;2023-03-11T11:04:45;100410.66;;;4.16;100.00
29315;BME280;16320;53.954;9.506;2023-03-11T11:08:20;100402.81;;;4.17;100.00
29315;BME280;16320;53.954;9.506;2023-03-11T11:11:28;100392.53;;;4.14;100.00
29315;BME280;16320;53.954;9.506;2023-03-11T11:14:46;100392.00;;;4.03;100.00
29315;BME280;16320;53.954;9.506;2023-03-11T11:17:55;100384.28;;;4.00;100.00
29315;BME280;16320;53.954;9.506;2023-03-11T11:21:06;100385.19;;;3.99;100.00
29315;BME280;16320;53.954;9.506;2023-03-11T11:24:43;100391.47;;;4.20;100.00
29315;BME280;16320;53.954;9.506;2023-03-11T11:27:59;100386.06;;;4.54;100.00
29315;BME280;16320;53.954;9.506;2023-03-11T11:31:19;100384.94;;;4.63;100.00
29315;BME280;16320;53.954;9.506;2023-03-11T11:34:32;100375.16;;;4.43;100.00
29315;BME280;16320;53.954;9.506;2023-03-11T11:37:47;100377.59;;;4.21;100.00
29315;BME280;16320;53.954;9.506;2023-03-11T11:40:54;100381.81;;;4.24;100.00
29315;BME280;16320;53.954;9.506;2023-03-11T11:44:05;100371.81;;;4.11;100.00
29315;BME280;16320;53.954;9.506;2023-03-11T11:47:20;100383.19;;;4.35;100.00
29315;BME280;16320;53.954;9.506;2023-03-11T11:50:32;100380.66;;;4.34;100.00
29315;BME280;16320;53.954;9.506;2023-03-11T11:56:50;100372.00;;;4.05;100.00
29315;BME280;16320;53.954;9.506;2023-03-11T11:59:54;100369.19;;;4.39;100.00
29315;BME280;16320;53.954;9.506;2023-03-11T12:03:49;100363.16;;;4.66;100.00
29315;BME280;16320;53.954;9.506;2023-03-11T12:11:38;100363.41;;;4.58;100.00
29315;BME280;16320;53.954;9.506;2023-03-11T12:15:04;100358.31;;;4.55;100.00
29315;BME280;16320;53.954;9.506;2023-03-11T12:18:44;100365.16;;;4.57;100.00
29315;BME280;16320;53.954;9.506;2023-03-11T12:22:11;100353.81;;;4.60;100.00
29315;BME280;16320;53.954;9.506;2023-03-11T12:29:22;100355.16;;;4.45;100.00
29315;BME280;16320;53.954;9.506;2023-03-11T12:32:57;100362.78;;;4.50;100.00
29315;BME280;16320;53.954;9.506;2023-03-11T12:36:01;100353.16;;;4.53;100.00
29315;BME280;16320;53.954;9.506;2023-03-11T12:42:38;100359.31;;;4.51;100.00
29315;BME280;16320;53.954;9.506;2023-03-11T12:45:52;100361.38;;;4.66;100.00
29315;BME280;16320;53.954;9.506;2023-03-11T12:49:12;100355.94;;;5.24;100.00
29315;BME280;16320;53.954;9.506;2023-03-11T12:52:23;100355.78;;;5.05;100.00
29315;BME280;16320;53.954;9.506;2023-03-11T12:55:33;100355.25;;;5.44;100.00
29315;BME280;16320;53.954;9.506;2023-03-11T12:59:04;100357.34;;;5.35;100.00
29315;BME280;16320;53.954;9.506;2023-03-11T13:09:18;100354.47;;;4.92;100.00
29315;BME280;16320;53.954;9.506;2023-03-11T13:12:45;100355.16;;;4.72;100.00
29315;BME280;16320;53.954;9.506;2023-03-11T13:15:53;100365.06;;;4.61;100.00
29315;BME280;16320;53.954;9.506;2023-03-11T13:26:36;100355.25;;;5.68;100.00
29315;BME280;16320;53.954;9.506;2023-03-11T13:30:01;100353.38;;;5.72;100.00
29315;BME280;16320;53.954;9.506;2023-03-11T13:43:26;100368.09;;;5.49;100.00
29315;BME280;16320;53.954;9.506;2023-03-11T13:46:37;100360.59;;;6.11;100.00
29315;BME280;16320;53.954;9.506;2023-03-11T13:50:07;100357.66;;;6.20;100.00
29315;BME280;16320;53.954;9.506;2023-03-11T13:56:43;100360.84;;;5.34;100.00
29315;BME280;16320;53.954;9.506;2023-03-11T13:59:52;100374.69;;;5.34;100.00
29315;BME280;16320;53.954;9.506;2023-03-11T14:03:15;100378.59;;;5.22;100.00
29315;BME280;16320;53.954;9.506;2023-03-11T14:06:29;100375.94;;;4.99;100.00
29315;BME280;16320;53.954;9.506;2023-03-11T14:09:34;100383.03;;;4.93;100.00
29315;BME280;16320;53.954;9.506;2023-03-11T14:12:39;100385.94;;;4.86;100.00
29315;BME280;16320;53.954;9.506;2023-03-11T14:16:27;100392.31;;;5.02;100.00
29315;BME280;16320;53.954;9.506;2023-03-11T14:19:38;100384.84;;;5.42;100.00
29315;BME280;16320;53.954;9.506;2023-03-11T14:22:52;100375.03;;;5.74;100.00
29315;BME280;16320;53.954;9.506;2023-03-11T14:26:07;100369.81;;;5.74;100.00
29315;BME280;16320;53.954;9.506;2023-03-11T14:29:19;100382.59;;;5.56;100.00
29315;BME280;16320;53.954;9.506;2023-03-11T14:32:28;100386.31;;;5.49;100.00
29315;BME280;16320;53.954;9.506;2023-03-11T14:35:35;100377.25;;;5.36;100.00
29315;BME280;16320;53.954;9.506;2023-03-11T14:38:46;100376.09;;;5.44;100.00
29315;BME280;16320;53.954;9.506;2023-03-11T14:42:20;100378.81;;;5.16;100.00
29315;BME280;16320;53.954;9.506;2023-03-11T14:45:35;100394.44;;;5.16;100.00
29315;BME280;16320;53.954;9.506;2023-03-11T14:48:45;100403.41;;;5.07;100.00
29315;BME280;16320;53.954;9.506;2023-03-11T14:52:07;100408.53;;;5.10;100.00
29315;BME280;16320;53.954;9.506;2023-03-11T14:55:31;100407.06;;;5.02;100.00
29315;BME280;16320;53.954;9.506;2023-03-11T14:59:01;100404.19;;;4.84;100.00
29315;BME280;16320;53.954;9.506;2023-03-11T15:06:27;100420.00;;;4.78;100.00
29315;BME280;16320;53.954;9.506;2023-03-11T15:09:39;100421.78;;;4.76;100.00
29315;BME280;16320;53.954;9.506;2023-03-11T15:12:47;100430.22;;;4.56;100.00
29315;BME280;16320;53.954;9.506;2023-03-11T15:20:00;100442.22;;;4.32;100.00
29315;BME280;16320;53.954;9.506;2023-03-11T15:23:20;100440.38;;;4.07;100.00
29315;BME280;16320;53.954;9.506;2023-03-11T15:26:35;100448.16;;;4.07;100.00
29315;BME280;16320;53.954;9.506;2023-03-11T15:29:56;100455.25;;;4.02;100.00
29315;BME280;16320;53.954;9.506;2023-03-11T15:33:34;100448.16;;;4.07;100.00
29315;BME280;16320;53.954;9.506;2023-03-11T15:43:59;100443.59;;;4.45;100.00
29315;BME280;16320;53.954;9.506;2023-03-11T15:47:22;100437.56;;;4.43;100.00
29315;BME280;16320;53.954;9.506;2023-03-11T15:50:27;100437.56;;;4.71;100.00
29315;BME280;16320;53.954;9.506;2023-03-11T15:53:54;100432.28;;;4.46;100.00
29315;BME280;16320;53.954;9.506;2023-03-11T15:57:06;100431.75;;;4.63;100.00
29315;BME280;16320;53.954;9.506;2023-03-11T16:00:22;100434.31;;;4.36;100.00
29315;BME280;16320;53.954;9.506;2023-03-11T16:03:30;100442.53;;;4.22;100.00
29315;BME280;16320;53.954;9.506;2023-03-11T16:06:35;100443.47;;;4.20;100.00
29315;BME280;16320;53.954;9.506;2023-03-11T16:09:40;100441.25;;;4.06;100.00
29315;BME280;16320;53.954;9.506;2023-03-11T16:12:45;100440.50;;;4.02;100.00
29315;BME280;16320;53.954;9.506;2023-03-11T16:15:50;100452.03;;;3.94;100.00
29315;BME280;16320;53.954;9.506;2023-03-11T16:18:55;100447.72;;;3.93;100.00
29315;BME280;16320;53.954;9.506;2023-03-11T16:22:00;100453.00;;;3.90;100.00
29315;BME280;16320;53.954;9.506;2023-03-11T16:25:13;100452.06;;;3.92;100.00
29315;BME280;16320;53.954;9.506;2023-03-11T16:28:29;100449.94;;;3.75;100.00
29315;BME280;16320;53.954;9.506;2023-03-11T16:31:36;100474.13;;;3.44;100.00
29315;BME280;16320;53.954;9.506;2023-03-11T16:34:42;100491.25;;;3.19;100.00
29315;BME280;16320;53.954;9.506;2023-03-11T16:37:49;100498.41;;;3.09;100.00
29315;BME280;16320;53.954;9.506;2023-03-11T16:40:58;100505.28;;;3.10;100.00
29315;BME280;16320;53.954;9.506;2023-03-11T16:44:05;100511.28;;;3.14;100.00
29315;BME280;16320;53.954;9.506;2023-03-11T16:47:13;100523.34;;;3.15;100.00
29315;BME280;16320;53.954;9.506;2023-03-11T16:50:23;100518.16;;;3.15;100.00
29315;BME280;16320;53.954;9.506;2023-03-11T16:53:28;100522.44;;;3.17;100.00
29315;BME280;16320;53.954;9.506;2023-03-11T16:56:37;100536.13;;;3.22;100.00
29315;BME280;16320;53.954;9.506;2023-03-11T16:59:44;100543.88;;;3.24;100.00
29315;BME280;16320;53.954;9.506;2023-03-11T17:02:50;100553.47;;;3.22;100.00
29315;BME280;16320;53.954;9.506;2023-03-11T17:06:01;100563.56;;;2.97;100.00
29315;BME280;16320;53.954;9.506;2023-03-11T17:09:06;100544.47;;;2.60;100.00
29315;BME280;16320;53.954;9.506;2023-03-11T17:12:10;100557.69;;;2.48;100.00
29315;BME280;16320;53.954;9.506;2023-03-11T17:15:19;100556.69;;;2.53;100.00
29315;BME280;16320;53.954;9.506;2023-03-11T17:18:25;100569.63;;;2.55;100.00
29315;BME280;16320;53.954;9.506;2023-03-11T17:21:54;100567.88;;;2.57;100.00
29315;BME280;16320;53.954;9.506;2023-03-11T17:56:06;100626.56;;;2.61;100.00
29315;BME280;16320;53.954;9.506;2023-03-11T18:18:31;100657.78;;;2.55;100.00
29315;BME280;16320;53.954;9.506;2023-03-11T18:41:45;100669.78;;;2.62;100.00
29315;BME280;16320;53.954;9.506;2023-03-11T18:45:25;100671.53;;;2.60;100.00
29315;BME280;16320;53.954;9.506;2023-03-11T18:48:29;100677.53;;;2.62;100.00
29315;BME280;16320;53.954;9.506;2023-03-11T18:51:32;100680.97;;;2.63;100.00
29315;BME280;16320;53.954;9.506;2023-03-11T18:54:36;100680.09;;;2.65;100.00